createdAt,value
2018-10-05T00:01:24.432Z,13.20
2018-10-05T00:03:52.473Z,13.20
2018-10-05T00:06:20.545Z,13.20
2018-10-05T00:08:48.597Z,13.20
2018-10-05T00:11:16.664Z,13.20
2018-10-05T00:13:44.720Z,13.30
2018-10-05T00:16:12.783Z,13.30
2018-10-05T00:18:40.830Z,13.30
2018-10-05T00:21:08.877Z,13.30
2018-10-05T00:23:36.916Z,13.30
2018-10-05T00:26:04.956Z,13.20
2018-10-05T00:28:33.060Z,13.30
2018-10-05T00:31:01.101Z,13.30
2018-10-05T00:33:29.132Z,13.30
2018-10-05T00:35:57.201Z,13.20
2018-10-05T00:38:25.240Z,13.30
2018-10-05T00:40:55.048Z,13.30
2018-10-05T00:43:23.213Z,13.30
2018-10-05T00:45:51.244Z,13.20
2018-10-05T00:48:19.284Z,13.20
2018-10-05T00:50:47.341Z,13.20
2018-10-05T00:53:15.421Z,13.20
2018-10-05T00:55:43.412Z,13.20
2018-10-05T00:58:11.484Z,13.20
2018-10-05T01:00:39.521Z,13.20
2018-10-05T01:03:07.676Z,13.10
2018-10-05T01:05:35.814Z,13.10
2018-10-05T01:08:03.860Z,13.10
2018-10-05T01:10:31.989Z,13.00
2018-10-05T01:13:00.040Z,13.10
2018-10-05T01:15:28.067Z,13.10
2018-10-05T01:17:56.108Z,13.20
2018-10-05T01:20:24.172Z,13.10
2018-10-05T01:22:52.393Z,13.10
2018-10-05T01:25:20.525Z,13.10
2018-10-05T01:27:48.597Z,13.10
2018-10-05T01:30:16.636Z,13.10
2018-10-05T01:32:44.688Z,13.10
2018-10-05T01:35:13.400Z,13.10
2018-10-05T01:37:41.665Z,13.10
2018-10-05T01:40:10.150Z,13.10
2018-10-05T01:42:38.201Z,13.10
2018-10-05T01:45:06.286Z,13.00
2018-10-05T01:47:34.393Z,13.00
2018-10-05T01:50:02.475Z,13.00
2018-10-05T01:52:30.592Z,13.10
2018-10-05T01:54:58.629Z,13.00
2018-10-05T01:57:26.684Z,13.10
2018-10-05T01:59:54.755Z,13.10
2018-10-05T02:02:22.799Z,13.10
2018-10-05T02:04:50.853Z,13.10
2018-10-05T02:07:18.869Z,13.10
2018-10-05T02:09:46.911Z,13.20
2018-10-05T02:12:14.971Z,13.10
2018-10-05T02:14:42.992Z,13.10
2018-10-05T02:17:11.024Z,13.10
2018-10-05T02:19:39.096Z,13.10
2018-10-05T02:22:07.127Z,13.10
2018-10-05T02:24:35.170Z,13.00
2018-10-05T02:27:03.244Z,13.00
2018-10-05T02:29:31.281Z,13.00
2018-10-05T02:31:59.341Z,12.90
2018-10-05T02:34:27.381Z,13.00
2018-10-05T02:36:55.421Z,12.90
2018-10-05T02:39:23.475Z,12.80
2018-10-05T02:41:51.599Z,12.60
2018-10-05T02:44:19.540Z,12.60
2018-10-05T02:46:47.606Z,12.60
2018-10-05T02:49:15.636Z,12.50
2018-10-05T02:51:43.673Z,12.20
2018-10-05T02:54:11.704Z,12.20
2018-10-05T02:56:39.728Z,12.20
2018-10-05T02:59:07.754Z,12.10
2018-10-05T03:01:47.225Z,12.00
2018-10-05T03:04:15.250Z,12.10
2018-10-05T03:06:43.279Z,12.00
2018-10-05T03:09:11.327Z,11.80
2018-10-05T03:11:39.360Z,11.70
2018-10-05T03:14:14.081Z,11.60
2018-10-05T03:16:42.153Z,11.50
2018-10-05T03:19:10.295Z,11.40
2018-10-05T03:21:38.347Z,11.40
2018-10-05T03:24:06.370Z,11.30
2018-10-05T03:26:34.416Z,11.30
2018-10-05T03:29:02.465Z,11.30
2018-10-05T03:31:30.491Z,11.30
2018-10-05T03:33:58.529Z,11.20
2018-10-05T03:36:26.575Z,11.10
2018-10-05T03:38:54.635Z,11.00
2018-10-05T03:41:22.689Z,10.90
2018-10-05T03:43:50.780Z,10.90
2018-10-05T03:46:18.828Z,10.80
2018-10-05T03:48:46.885Z,10.80
2018-10-05T03:51:14.928Z,10.60
2018-10-05T03:53:42.971Z,10.70
2018-10-05T03:56:11.097Z,10.60
2018-10-05T03:58:39.152Z,10.50
2018-10-05T04:01:07.215Z,10.50
2018-10-05T04:03:35.238Z,10.40
2018-10-05T04:06:03.295Z,10.40
2018-10-05T04:08:31.384Z,10.30
2018-10-05T04:10:59.424Z,10.20
2018-10-05T04:13:27.485Z,10.20
2018-10-05T04:18:29.995Z,10.10
2018-10-05T04:20:58.005Z,10.10
2018-10-05T04:23:26.042Z,10.20
2018-10-05T04:25:54.104Z,10.10
2018-10-05T04:28:22.152Z,10.10
2018-10-05T04:30:50.172Z,10.00
2018-10-05T04:33:18.225Z,9.90
2018-10-05T04:35:46.289Z,9.80
2018-10-05T04:38:14.377Z,9.80
2018-10-05T04:40:42.497Z,9.80
2018-10-05T04:43:10.531Z,9.70
2018-10-05T04:45:38.575Z,9.70
2018-10-05T04:48:06.672Z,9.70
2018-10-05T04:50:34.701Z,9.70
2018-10-05T04:53:02.730Z,9.70
2018-10-05T04:55:30.779Z,9.60
2018-10-05T04:57:58.833Z,9.50
2018-10-05T05:00:26.852Z,9.60
2018-10-05T05:02:54.987Z,9.60
2018-10-05T05:05:23.038Z,9.50
2018-10-05T05:07:51.194Z,9.40
2018-10-05T05:10:19.243Z,9.30
2018-10-05T05:12:47.288Z,9.30
2018-10-05T05:15:15.302Z,9.20
2018-10-05T05:17:43.355Z,9.20
2018-10-05T05:20:11.375Z,9.20
2018-10-05T05:22:39.396Z,9.10
2018-10-05T05:25:07.423Z,9.10
2018-10-05T05:27:35.444Z,9.10
2018-10-05T05:30:03.556Z,9.10
2018-10-05T05:32:31.612Z,9.10
2018-10-05T05:34:59.656Z,9.00
2018-10-05T05:37:27.682Z,9.00
2018-10-05T05:42:29.981Z,9.00
2018-10-05T05:44:58.028Z,9.00
2018-10-05T05:47:26.071Z,9.00
2018-10-05T05:49:54.113Z,9.00
2018-10-05T05:52:22.165Z,9.00
2018-10-05T05:54:50.188Z,9.00
2018-10-05T05:57:18.231Z,9.10
2018-10-05T05:59:46.370Z,9.10
2018-10-05T06:02:14.400Z,9.10
2018-10-05T06:04:42.441Z,9.20
2018-10-05T06:07:10.489Z,9.20
2018-10-05T06:09:38.520Z,9.30
2018-10-05T06:12:06.558Z,9.30
2018-10-05T06:14:34.598Z,9.40
2018-10-05T06:17:02.616Z,9.50
2018-10-05T06:19:30.661Z,9.50
2018-10-05T06:21:58.905Z,9.60
2018-10-05T06:24:26.844Z,9.70
2018-10-05T06:26:54.900Z,9.80
2018-10-05T06:29:22.960Z,9.80
2018-10-05T06:31:51.000Z,9.90
2018-10-05T06:34:19.056Z,10.00
2018-10-05T06:36:47.187Z,10.10
2018-10-05T06:39:15.275Z,10.20
2018-10-05T06:41:43.262Z,10.30
2018-10-05T06:44:11.336Z,10.40
2018-10-05T06:46:39.368Z,10.50
2018-10-05T06:49:07.402Z,10.50
2018-10-05T06:51:35.451Z,10.70
2018-10-05T06:54:03.521Z,10.90
2018-10-05T06:56:31.564Z,10.90
2018-10-05T06:58:59.608Z,11.00
2018-10-05T07:01:27.730Z,11.20
2018-10-05T07:03:55.731Z,11.30
2018-10-05T07:06:23.876Z,11.40
2018-10-05T07:08:51.909Z,11.50
2018-10-05T07:11:19.942Z,11.60
2018-10-05T07:13:47.987Z,11.70
2018-10-05T07:16:16.066Z,11.90
2018-10-05T07:18:44.135Z,12.10
2018-10-05T07:21:12.256Z,12.30
2018-10-05T07:23:40.276Z,12.50
2018-10-05T07:26:08.303Z,12.70
2018-10-05T07:28:36.512Z,12.80
2018-10-05T07:31:04.455Z,13.00
2018-10-05T07:33:32.493Z,13.10
2018-10-05T07:36:00.548Z,13.40
2018-10-05T07:38:28.755Z,13.60
2018-10-05T07:40:56.792Z,13.60
2018-10-05T07:43:24.849Z,13.90
2018-10-05T07:45:52.891Z,14.00
2018-10-05T07:48:21.010Z,14.20
2018-10-05T07:50:49.060Z,14.30
2018-10-05T07:53:17.171Z,14.30
2018-10-05T07:55:45.235Z,14.60
2018-10-05T07:58:13.312Z,14.80
2018-10-05T08:00:41.437Z,15.10
2018-10-05T08:03:09.469Z,15.30
2018-10-05T08:05:37.524Z,15.50
2018-10-05T08:08:05.816Z,15.60
2018-10-05T08:10:33.847Z,15.80
2018-10-05T08:13:01.917Z,15.90
2018-10-05T08:15:30.044Z,16.10
2018-10-05T08:17:58.089Z,16.10
2018-10-05T08:20:26.160Z,16.20
2018-10-05T08:22:54.225Z,16.20
2018-10-05T08:25:22.283Z,16.60
2018-10-05T08:27:50.402Z,16.50
2018-10-05T08:30:18.452Z,16.50
2018-10-05T08:32:46.539Z,16.80
2018-10-05T08:35:14.584Z,17.10
2018-10-05T08:37:42.620Z,17.30
2018-10-05T08:40:11.062Z,17.30
2018-10-05T08:42:39.134Z,17.50
2018-10-05T08:45:07.344Z,17.40
2018-10-05T08:47:35.463Z,17.60
2018-10-05T08:50:03.532Z,18.00
2018-10-05T08:52:31.826Z,18.30
2018-10-05T08:54:59.875Z,18.50
2018-10-05T08:57:27.944Z,18.70
2018-10-05T08:59:55.982Z,19.00
2018-10-05T09:02:24.017Z,18.70
2018-10-05T09:04:52.044Z,19.10
2018-10-05T09:07:20.081Z,19.30
2018-10-05T09:09:48.107Z,19.40
2018-10-05T09:12:16.204Z,19.40
2018-10-05T09:14:44.246Z,19.90
2018-10-05T09:17:12.317Z,20.10
2018-10-05T09:19:40.368Z,20.20
2018-10-05T09:22:08.418Z,19.90
2018-10-05T09:24:36.455Z,20.30
2018-10-05T09:27:04.499Z,20.50
2018-10-05T09:29:32.536Z,20.60
2018-10-05T09:32:00.587Z,20.70
2018-10-05T09:34:28.622Z,20.90
2018-10-05T09:36:56.665Z,21.30
2018-10-05T09:39:24.720Z,21.30
2018-10-05T09:41:52.818Z,21.40
2018-10-05T09:44:20.874Z,21.50
2018-10-05T09:46:48.943Z,21.60
2018-10-05T09:49:16.993Z,22.00
2018-10-05T09:51:45.064Z,22.20
2018-10-05T09:54:13.060Z,22.60
2018-10-05T09:56:41.122Z,22.50
2018-10-05T09:59:09.176Z,22.70
2018-10-05T10:01:42.552Z,22.80
2018-10-05T10:04:10.572Z,22.90
2018-10-05T10:06:38.624Z,23.10
2018-10-05T10:09:07.826Z,23.00
2018-10-05T10:11:35.860Z,23.30
2018-10-05T10:14:04.447Z,23.30
2018-10-05T10:16:32.476Z,23.40
2018-10-05T10:19:00.528Z,23.70
2018-10-05T10:21:28.569Z,23.90
2018-10-05T10:23:56.622Z,23.80
2018-10-05T10:26:24.649Z,24.10
2018-10-05T10:28:52.750Z,24.50
2018-10-05T10:31:20.743Z,24.30
2018-10-05T10:33:48.866Z,24.40
2018-10-05T10:36:16.921Z,24.50
2018-10-05T10:38:44.955Z,24.70
2018-10-05T10:41:12.998Z,24.90
2018-10-05T10:43:41.045Z,24.70
2018-10-05T10:46:09.072Z,24.90
2018-10-05T10:48:37.113Z,25.10
2018-10-05T10:51:05.181Z,24.90
2018-10-05T10:53:33.224Z,24.70
2018-10-05T10:56:01.372Z,24.90
2018-10-05T10:58:29.464Z,25.20
2018-10-05T11:00:57.503Z,25.60
2018-10-05T11:03:25.622Z,25.50
2018-10-05T11:05:53.688Z,25.00
2018-10-05T11:08:21.716Z,25.20
2018-10-05T11:10:49.763Z,25.30
2018-10-05T11:13:17.804Z,25.80
2018-10-05T11:15:45.864Z,25.80
2018-10-05T11:18:13.896Z,25.90
2018-10-05T11:20:41.943Z,25.80
2018-10-05T11:23:10.035Z,25.90
2018-10-05T11:25:38.004Z,25.90
2018-10-05T11:28:06.104Z,26.10
2018-10-05T11:30:34.148Z,26.20
2018-10-05T11:33:02.248Z,26.10
2018-10-05T11:35:30.332Z,26.30
2018-10-05T11:37:58.373Z,26.30
2018-10-05T11:40:26.386Z,26.10
2018-10-05T11:42:54.452Z,26.00
2018-10-05T11:45:22.480Z,26.10
2018-10-05T11:47:50.512Z,26.50
2018-10-05T11:50:18.557Z,26.20
2018-10-05T11:52:46.595Z,26.30
2018-10-05T11:55:14.631Z,26.20
2018-10-05T11:57:42.796Z,26.50
2018-10-05T12:00:10.824Z,26.50
2018-10-05T12:02:38.951Z,26.60
2018-10-05T12:05:06.951Z,26.20
2018-10-05T12:07:35.048Z,26.00
2018-10-05T12:10:03.091Z,25.80
2018-10-05T12:12:31.125Z,26.00
2018-10-05T12:14:59.161Z,26.00
2018-10-05T12:17:27.179Z,26.10
2018-10-05T12:19:55.310Z,26.20
2018-10-05T12:22:23.297Z,25.90
2018-10-05T12:24:51.340Z,25.90
2018-10-05T12:27:19.383Z,26.00
2018-10-05T12:29:47.441Z,26.20
2018-10-05T12:32:15.455Z,25.90
2018-10-05T12:34:43.519Z,25.80
2018-10-05T12:37:11.642Z,25.60
2018-10-05T12:39:39.668Z,25.40
2018-10-05T12:42:07.870Z,25.40
2018-10-05T12:44:35.781Z,25.10
2018-10-05T12:47:03.832Z,25.00
2018-10-05T12:49:31.875Z,25.00
2018-10-05T12:51:59.928Z,24.90
2018-10-05T12:54:27.964Z,25.10
2018-10-05T12:56:56.028Z,25.00
2018-10-05T12:59:24.050Z,25.00
2018-10-05T13:01:52.096Z,24.80
2018-10-05T13:04:20.144Z,24.90
2018-10-05T13:06:48.277Z,24.90
2018-10-05T13:09:16.320Z,24.70
2018-10-05T13:11:44.375Z,24.60
2018-10-05T13:14:12.400Z,24.60
2018-10-05T13:16:40.431Z,24.50
2018-10-05T13:19:08.476Z,24.40
2018-10-05T13:21:36.514Z,24.40
2018-10-05T13:24:05.176Z,24.50
2018-10-05T13:26:33.702Z,24.30
2018-10-05T13:29:01.814Z,24.40
2018-10-05T13:31:29.849Z,24.40
2018-10-05T13:33:57.951Z,24.40
2018-10-05T13:36:25.975Z,24.00
2018-10-05T13:38:53.996Z,24.00
2018-10-05T13:41:22.061Z,23.90
2018-10-05T13:43:50.101Z,24.00
2018-10-05T13:46:18.128Z,23.90
2018-10-05T13:48:46.201Z,23.80
2018-10-05T13:51:14.258Z,23.80
2018-10-05T13:53:42.288Z,23.90
2018-10-05T13:56:10.358Z,23.80
2018-10-05T13:58:38.372Z,23.70
2018-10-05T14:01:06.412Z,23.70
2018-10-05T14:03:34.477Z,23.50
2018-10-05T14:06:02.507Z,23.30
2018-10-05T14:08:30.554Z,23.40
2018-10-05T14:10:58.596Z,23.30
2018-10-05T14:13:26.652Z,23.20
2018-10-05T14:15:54.676Z,23.00
2018-10-05T14:18:22.724Z,23.00
2018-10-05T14:20:50.764Z,22.90
2018-10-05T14:23:18.804Z,22.90
2018-10-05T14:25:46.925Z,22.70
2018-10-05T14:28:14.964Z,22.60
2018-10-05T14:30:43.012Z,22.50
2018-10-05T14:33:11.048Z,22.50
2018-10-05T14:35:39.080Z,22.50
2018-10-05T14:38:07.160Z,22.50
2018-10-05T14:40:35.164Z,22.20
2018-10-05T14:43:03.191Z,22.20
2018-10-05T14:45:31.232Z,22.20
2018-10-05T14:47:59.307Z,22.10
2018-10-05T14:50:27.328Z,22.00
2018-10-05T14:52:55.344Z,21.90
2018-10-05T14:55:27.321Z,21.90
2018-10-05T14:57:55.357Z,21.70
2018-10-05T15:00:23.392Z,21.50
2018-10-05T15:02:51.453Z,21.50
2018-10-05T15:05:19.482Z,21.40
2018-10-05T15:07:47.529Z,21.40
2018-10-05T15:10:15.584Z,21.30
2018-10-05T15:12:43.661Z,21.30
2018-10-05T15:15:11.684Z,21.20
2018-10-05T15:17:39.876Z,21.10
2018-10-05T15:20:07.948Z,20.90
2018-10-05T15:22:36.096Z,20.80
2018-10-05T15:25:04.227Z,20.70
2018-10-05T15:27:32.294Z,20.70
2018-10-05T15:30:00.352Z,20.50
2018-10-05T15:32:28.446Z,20.50
2018-10-05T15:34:56.536Z,20.50
2018-10-05T15:37:24.672Z,20.50
2018-10-05T15:39:52.776Z,20.20
2018-10-05T15:42:20.897Z,20.20
2018-10-05T15:44:49.290Z,20.00
2018-10-05T15:47:17.706Z,20.00
2018-10-05T15:49:46.251Z,19.90
2018-10-05T15:52:14.322Z,19.70
2018-10-05T15:54:42.407Z,19.70
2018-10-05T15:57:10.503Z,19.60
2018-10-05T15:59:38.964Z,19.50
2018-10-05T16:02:07.040Z,19.40
2018-10-05T16:04:35.108Z,19.30
2018-10-05T16:07:04.247Z,19.20
2018-10-05T16:09:32.343Z,19.00
2018-10-05T16:12:00.412Z,18.90
2018-10-05T16:14:28.487Z,18.80
2018-10-05T16:16:56.552Z,18.80
2018-10-05T16:19:24.621Z,18.70
2018-10-05T16:21:52.700Z,18.60
2018-10-05T16:24:25.039Z,18.50
2018-10-05T16:26:53.098Z,18.30
2018-10-05T16:29:21.176Z,18.20
2018-10-05T16:31:49.264Z,18.10
2018-10-05T16:34:17.305Z,18.00
2018-10-05T16:36:45.397Z,17.90
2018-10-05T16:39:13.455Z,17.80
2018-10-05T16:41:41.548Z,17.70
2018-10-05T16:44:09.668Z,17.50
2018-10-05T16:46:38.612Z,17.40
2018-10-05T16:49:08.108Z,17.30
2018-10-05T16:51:36.239Z,17.10
2018-10-05T16:54:04.537Z,17.10
2018-10-05T16:56:32.596Z,17.00
2018-10-05T16:59:00.683Z,16.90
2018-10-05T17:01:28.771Z,16.80
2018-10-05T17:03:56.907Z,16.70
2018-10-05T17:06:24.929Z,16.50
2018-10-05T17:08:56.240Z,16.40
2018-10-05T17:11:24.296Z,16.40
2018-10-05T17:13:52.402Z,16.30
2018-10-05T17:16:20.489Z,16.20
2018-10-05T17:18:48.545Z,16.10
2018-10-05T17:21:16.617Z,16.10
2018-10-05T17:23:44.824Z,16.00
2018-10-05T17:26:12.902Z,15.80
2018-10-05T17:28:40.981Z,15.70
2018-10-05T17:31:09.116Z,15.70
2018-10-05T17:33:37.181Z,15.60
2018-10-05T17:36:05.245Z,15.50
2018-10-05T17:38:33.340Z,15.40
2018-10-05T17:41:02.073Z,15.30
2018-10-05T17:43:30.140Z,15.20
2018-10-05T17:45:58.324Z,15.20
2018-10-05T17:48:26.388Z,15.10
2018-10-05T17:50:54.444Z,15.10
2018-10-05T17:53:23.689Z,15.10
2018-10-05T17:55:52.084Z,15.10
2018-10-05T17:58:20.123Z,15.00
2018-10-05T18:00:48.325Z,15.00
2018-10-05T18:03:17.406Z,14.90
2018-10-05T18:05:45.619Z,14.90
2018-10-05T18:08:13.743Z,14.90
2018-10-05T18:10:41.832Z,14.80
2018-10-05T18:13:09.920Z,14.70
2018-10-05T18:15:38.416Z,14.80
2018-10-05T18:18:06.512Z,14.70
2018-10-05T18:20:34.664Z,14.70
2018-10-05T18:23:02.770Z,14.70
2018-10-05T18:25:30.885Z,14.70
2018-10-05T18:27:58.961Z,14.70
2018-10-05T18:30:27.058Z,14.60
2018-10-05T18:32:55.138Z,14.60
2018-10-05T18:35:23.263Z,14.50
2018-10-05T18:37:51.362Z,14.50
2018-10-05T18:40:19.548Z,14.50
2018-10-05T18:42:47.750Z,14.50
2018-10-05T18:45:15.796Z,14.50
2018-10-05T18:47:43.920Z,14.40
2018-10-05T18:50:12.888Z,14.40
2018-10-05T18:52:41.086Z,14.30
2018-10-05T18:55:09.163Z,14.40
2018-10-05T18:57:37.228Z,14.30
2018-10-05T19:00:05.939Z,14.30
2018-10-05T19:02:34.302Z,14.30
2018-10-05T19:05:03.104Z,14.30
2018-10-05T19:07:31.318Z,14.20
2018-10-05T19:09:59.395Z,14.10
2018-10-05T19:12:27.460Z,14.10
2018-10-05T19:14:55.509Z,14.00
2018-10-05T19:17:23.560Z,13.90
2018-10-05T19:19:51.648Z,13.90
2018-10-05T19:22:19.744Z,13.80
2018-10-05T19:24:48.056Z,13.80
2018-10-05T19:27:16.152Z,13.70
2018-10-05T19:29:44.335Z,13.70
2018-10-05T19:32:12.467Z,13.70
2018-10-05T19:34:40.654Z,13.60
2018-10-05T19:37:08.782Z,13.60
2018-10-05T19:39:36.885Z,13.60
2018-10-05T19:42:05.036Z,13.50
2018-10-05T19:44:34.336Z,13.50
2018-10-05T19:47:02.486Z,13.50
2018-10-05T19:49:30.608Z,13.40
2018-10-05T19:51:58.746Z,13.50
2018-10-05T19:54:26.991Z,13.40
2018-10-05T19:56:55.132Z,13.40
2018-10-05T19:59:23.332Z,13.40
2018-10-05T20:01:51.484Z,13.30
2018-10-05T20:04:19.544Z,13.30
2018-10-05T20:06:47.758Z,13.30
2018-10-05T20:09:15.956Z,13.30
2018-10-05T20:11:44.135Z,13.30
2018-10-05T20:14:12.423Z,13.20
2018-10-05T20:16:40.565Z,13.20
2018-10-05T20:19:08.663Z,13.20
2018-10-05T20:21:36.777Z,13.10
2018-10-05T20:24:04.851Z,13.10
2018-10-05T20:26:32.920Z,13.00
2018-10-05T20:29:01.083Z,13.00
2018-10-05T20:31:29.193Z,12.90
2018-10-05T20:33:57.254Z,12.80
2018-10-05T20:36:25.475Z,12.80
2018-10-05T20:38:53.484Z,12.70
2018-10-05T20:41:21.552Z,12.70
2018-10-05T20:43:49.658Z,12.60
2018-10-05T20:46:17.803Z,12.60
2018-10-05T20:48:45.873Z,12.50
2018-10-05T20:51:13.972Z,12.40
2018-10-05T20:53:42.160Z,12.40
2018-10-05T20:56:10.224Z,12.40
2018-10-05T20:58:38.292Z,12.40
2018-10-05T21:01:06.341Z,12.40
2018-10-05T21:03:34.503Z,12.30
2018-10-05T21:06:02.681Z,12.30
2018-10-05T21:08:30.753Z,12.30
2018-10-05T21:10:58.845Z,12.20
2018-10-05T21:13:26.901Z,12.20
2018-10-05T21:15:55.105Z,12.20
2018-10-05T21:18:23.176Z,12.10
2018-10-05T21:20:51.432Z,12.00
2018-10-05T21:23:19.485Z,12.00
2018-10-05T21:25:47.544Z,12.00
2018-10-05T21:28:15.610Z,11.90
2018-10-05T21:30:44.984Z,11.90
2018-10-05T21:33:13.121Z,11.90
2018-10-05T21:35:41.175Z,11.80
2018-10-05T21:38:09.288Z,11.80
2018-10-05T21:40:37.353Z,11.80
2018-10-05T21:43:05.507Z,11.80
2018-10-05T21:45:33.545Z,11.70
2018-10-05T21:48:01.719Z,11.70
2018-10-05T21:50:29.948Z,11.70
2018-10-05T21:52:58.012Z,11.60
2018-10-05T21:55:26.142Z,11.60
2018-10-05T21:57:54.205Z,11.70
2018-10-05T22:00:22.298Z,11.70
2018-10-05T22:02:50.396Z,11.70
2018-10-05T22:05:18.484Z,11.70
2018-10-05T22:07:46.547Z,11.80
2018-10-05T22:10:14.620Z,11.80
2018-10-05T22:12:42.726Z,11.80
2018-10-05T22:15:10.757Z,11.80
2018-10-05T22:17:38.888Z,11.90
2018-10-05T22:20:06.994Z,12.00
2018-10-05T22:22:34.970Z,12.00
2018-10-05T22:25:03.044Z,12.10
2018-10-05T22:27:31.127Z,12.10
2018-10-05T22:29:59.211Z,12.20
2018-10-05T22:32:27.255Z,12.30
2018-10-05T22:34:55.337Z,12.30
2018-10-05T22:37:23.385Z,12.20
2018-10-05T22:39:51.413Z,12.30
2018-10-05T22:42:19.488Z,12.30
2018-10-05T22:44:47.580Z,12.30
2018-10-05T22:47:15.643Z,12.40
2018-10-05T22:49:43.757Z,12.40
2018-10-05T22:52:11.796Z,12.50
2018-10-05T22:54:39.866Z,12.50
2018-10-05T22:57:08.244Z,12.50
2018-10-05T22:59:36.263Z,12.50
2018-10-05T23:02:04.316Z,12.60
2018-10-05T23:04:32.388Z,12.60
2018-10-05T23:07:00.448Z,12.60
2018-10-05T23:09:28.532Z,12.70
2018-10-05T23:11:56.621Z,12.70
2018-10-05T23:14:24.692Z,12.70
2018-10-05T23:16:52.747Z,12.70
2018-10-05T23:19:20.828Z,12.70
2018-10-05T23:21:48.887Z,12.70
2018-10-05T23:24:16.988Z,12.80
2018-10-05T23:26:45.042Z,12.80
2018-10-05T23:29:13.104Z,12.80
2018-10-05T23:31:41.171Z,12.80
2018-10-05T23:34:09.256Z,12.80
2018-10-05T23:36:37.295Z,12.70
2018-10-05T23:39:07.482Z,12.70
2018-10-05T23:41:35.582Z,12.70
2018-10-05T23:44:03.679Z,12.70
2018-10-05T23:46:31.723Z,12.70
2018-10-05T23:49:10.321Z,12.60
2018-10-05T23:51:38.410Z,12.60
2018-10-05T23:54:06.469Z,12.70
2018-10-05T23:56:34.533Z,12.70
2018-10-05T23:59:02.574Z,12.60
